Davis Junction, Illinois
Current Conditions -  °F | °C
As of 4:54 AM on Monday 20 Oct 2014 (Local Time) from KRFD Reporting Station
Few Clouds Few Clouds  
Wind Chill: 44°   Ceiling: Unl
Heat Index: 47°   Visibility: 10mi
Dew Point: 42°   Wind: 7mph
Humidity: 83%   Direction: 200°SSW
Pressure: 29.82"   Gusts: NA
Location:  42.1°N, 89.09°W
Report Text: KRFD 200954Z 20006KT 10SM FEW120 08/06 A2982 RMK AO2 SLP099 T00830056
Loading
Personal Weather Stations






























Interactive Weather Map
Tropical Storm Tracking
New forecast layout! Learn more

10-Day Weather Forecast

Advertisements
Track Severe Weather on mobile